Midway, North Carolina
Current Conditions -  °F | °C
As of 5:55 PM on Friday 28 Nov 2014 (Local Time) from KSIF Reporting Station
Clear Clear  
Wind Chill: 32°   Ceiling: Unl
Heat Index: 32°   Visibility: 10mi
Dew Point: 24°   Wind: 0mph
Humidity: 72%   Direction: NA
Pressure: 30.29"   Gusts: NA
Location:  36.3355°N, 79.6561°W
Report Text: KSIF 282255Z AUTO 00000KT 10SM CLR 00/M05 A3029 RMK AO2 T10011046
Loading
Personal Weather Stations






























Interactive Weather Map New forecast layout! Learn more

10-Day Weather Forecast

Advertisements
Track Severe Weather on mobile